sensor_id;sensor_type;location;lat;lon;timestamp;P1;durP1;ratioP1;P2;durP2;ratioP2
11431;SDS011;5772;50.940;6.782;2023-07-13T00:02:22;18.53;;;17.73;;
11431;SDS011;5772;50.940;6.782;2023-07-13T00:04:48;18.77;;;17.87;;
11431;SDS011;5772;50.940;6.782;2023-07-13T00:07:13;18.87;;;17.97;;
11431;SDS011;5772;50.940;6.782;2023-07-13T00:09:39;19.70;;;18.73;;
11431;SDS011;5772;50.940;6.782;2023-07-13T00:12:25;19.50;;;18.70;;
11431;SDS011;5772;50.940;6.782;2023-07-13T00:14:51;19.20;;;18.30;;
11431;SDS011;5772;50.940;6.782;2023-07-13T00:17:17;18.97;;;18.17;;
11431;SDS011;5772;50.940;6.782;2023-07-13T00:19:42;19.23;;;18.50;;
11431;SDS011;5772;50.940;6.782;2023-07-13T00:22:07;19.77;;;18.53;;
11431;SDS011;5772;50.940;6.782;2023-07-13T00:24:33;18.63;;;17.83;;
11431;SDS011;5772;50.940;6.782;2023-07-13T00:26:58;20.00;;;18.93;;
11431;SDS011;5772;50.940;6.782;2023-07-13T00:29:25;19.53;;;18.53;;
11431;SDS011;5772;50.940;6.782;2023-07-13T00:31:51;19.90;;;19.10;;
11431;SDS011;5772;50.940;6.782;2023-07-13T00:34:16;18.63;;;17.83;;
11431;SDS011;5772;50.940;6.782;2023-07-13T00:36:41;19.80;;;18.90;;
11431;SDS011;5772;50.940;6.782;2023-07-13T00:39:07;19.03;;;18.23;;
11431;SDS011;5772;50.940;6.782;2023-07-13T00:41:32;19.53;;;18.63;;
11431;SDS011;5772;50.940;6.782;2023-07-13T00:43:57;22.17;;;20.70;;
11431;SDS011;5772;50.940;6.782;2023-07-13T00:46:26;19.93;;;18.83;;
11431;SDS011;5772;50.940;6.782;2023-07-13T00:48:52;20.77;;;19.97;;
11431;SDS011;5772;50.940;6.782;2023-07-13T00:51:20;20.00;;;19.20;;
11431;SDS011;5772;50.940;6.782;2023-07-13T00:53:49;20.77;;;19.73;;
11431;SDS011;5772;50.940;6.782;2023-07-13T00:56:15;20.07;;;19.27;;
11431;SDS011;5772;50.940;6.782;2023-07-13T00:58:41;20.43;;;19.63;;
11431;SDS011;5772;50.940;6.782;2023-07-13T01:01:06;21.83;;;20.80;;
11431;SDS011;5772;50.940;6.782;2023-07-13T01:03:33;20.13;;;19.03;;
11431;SDS011;5772;50.940;6.782;2023-07-13T01:06:00;23.70;;;22.60;;
11431;SDS011;5772;50.940;6.782;2023-07-13T01:08:25;22.63;;;21.57;;
11431;SDS011;5772;50.940;6.782;2023-07-13T01:10:52;21.67;;;20.53;;
11431;SDS011;5772;50.940;6.782;2023-07-13T01:13:18;24.23;;;23.03;;
11431;SDS011;5772;50.940;6.782;2023-07-13T01:15:45;22.67;;;21.60;;
11431;SDS011;5772;50.940;6.782;2023-07-13T01:18:13;23.67;;;22.67;;
11431;SDS011;5772;50.940;6.782;2023-07-13T01:20:41;22.27;;;20.87;;
11431;SDS011;5772;50.940;6.782;2023-07-13T01:23:11;23.73;;;22.73;;
11431;SDS011;5772;50.940;6.782;2023-07-13T01:25:37;22.53;;;21.63;;
11431;SDS011;5772;50.940;6.782;2023-07-13T01:28:03;21.67;;;20.57;;
11431;SDS011;5772;50.940;6.782;2023-07-13T01:30:28;23.53;;;22.30;;
11431;SDS011;5772;50.940;6.782;2023-07-13T01:32:54;23.63;;;22.63;;
11431;SDS011;5772;50.940;6.782;2023-07-13T01:35:19;22.73;;;21.73;;
11431;SDS011;5772;50.940;6.782;2023-07-13T01:37:46;21.10;;;20.10;;
11431;SDS011;5772;50.940;6.782;2023-07-13T01:40:12;22.57;;;21.37;;
11431;SDS011;5772;50.940;6.782;2023-07-13T01:42:37;23.73;;;22.83;;
11431;SDS011;5772;50.940;6.782;2023-07-13T01:45:03;23.13;;;22.10;;
11431;SDS011;5772;50.940;6.782;2023-07-13T01:47:28;22.33;;;21.43;;
11431;SDS011;5772;50.940;6.782;2023-07-13T01:49:54;22.80;;;21.87;;
11431;SDS011;5772;50.940;6.782;2023-07-13T01:52:19;22.73;;;21.43;;
11431;SDS011;5772;50.940;6.782;2023-07-13T01:54:46;22.63;;;21.60;;
11431;SDS011;5772;50.940;6.782;2023-07-13T01:57:11;21.53;;;20.63;;
11431;SDS011;5772;50.940;6.782;2023-07-13T01:59:37;20.07;;;19.17;;
11431;SDS011;5772;50.940;6.782;2023-07-13T02:02:02;22.13;;;21.27;;
11431;SDS011;5772;50.940;6.782;2023-07-13T02:04:28;21.10;;;20.20;;
11431;SDS011;5772;50.940;6.782;2023-07-13T02:06:53;21.83;;;20.63;;
11431;SDS011;5772;50.940;6.782;2023-07-13T02:09:18;20.60;;;19.63;;
11431;SDS011;5772;50.940;6.782;2023-07-13T02:11:45;20.13;;;19.27;;
11431;SDS011;5772;50.940;6.782;2023-07-13T02:14:10;19.93;;;19.13;;
11431;SDS011;5772;50.940;6.782;2023-07-13T02:16:36;19.63;;;18.83;;
11431;SDS011;5772;50.940;6.782;2023-07-13T02:19:01;19.93;;;18.73;;
11431;SDS011;5772;50.940;6.782;2023-07-13T02:21:26;20.13;;;19.23;;
11431;SDS011;5772;50.940;6.782;2023-07-13T02:23:52;20.13;;;19.30;;
11431;SDS011;5772;50.940;6.782;2023-07-13T02:26:17;20.40;;;19.40;;
11431;SDS011;5772;50.940;6.782;2023-07-13T02:28:44;20.70;;;19.87;;
11431;SDS011;5772;50.940;6.782;2023-07-13T02:31:10;19.90;;;19.10;;
11431;SDS011;5772;50.940;6.782;2023-07-13T02:33:37;21.50;;;20.50;;
11431;SDS011;5772;50.940;6.782;2023-07-13T02:36:02;22.07;;;21.17;;
11431;SDS011;5772;50.940;6.782;2023-07-13T02:38:28;21.23;;;20.23;;
11431;SDS011;5772;50.940;6.782;2023-07-13T02:40:53;21.23;;;20.33;;
11431;SDS011;5772;50.940;6.782;2023-07-13T02:43:19;21.20;;;20.20;;
11431;SDS011;5772;50.940;6.782;2023-07-13T02:45:46;20.60;;;19.80;;
11431;SDS011;5772;50.940;6.782;2023-07-13T02:48:13;22.73;;;21.60;;
11431;SDS011;5772;50.940;6.782;2023-07-13T02:50:39;22.40;;;21.03;;
11431;SDS011;5772;50.940;6.782;2023-07-13T02:53:04;20.50;;;19.70;;
11431;SDS011;5772;50.940;6.782;2023-07-13T02:55:29;22.90;;;21.93;;
11431;SDS011;5772;50.940;6.782;2023-07-13T02:57:55;22.83;;;21.73;;
11431;SDS011;5772;50.940;6.782;2023-07-13T03:00:21;23.33;;;22.33;;
11431;SDS011;5772;50.940;6.782;2023-07-13T03:02:48;22.90;;;21.80;;
11431;SDS011;5772;50.940;6.782;2023-07-13T03:05:13;22.93;;;21.83;;
11431;SDS011;5772;50.940;6.782;2023-07-13T03:07:39;24.07;;;21.70;;
11431;SDS011;5772;50.940;6.782;2023-07-13T03:10:05;24.60;;;23.60;;
11431;SDS011;5772;50.940;6.782;2023-07-13T03:12:31;23.93;;;23.00;;
11431;SDS011;5772;50.940;6.782;2023-07-13T03:14:57;23.47;;;22.57;;
11431;SDS011;5772;50.940;6.782;2023-07-13T03:17:22;23.37;;;22.37;;
11431;SDS011;5772;50.940;6.782;2023-07-13T03:19:49;23.73;;;22.83;;
11431;SDS011;5772;50.940;6.782;2023-07-13T03:22:14;25.70;;;24.17;;
11431;SDS011;5772;50.940;6.782;2023-07-13T03:24:40;26.60;;;25.27;;
11431;SDS011;5772;50.940;6.782;2023-07-13T03:27:06;25.93;;;24.73;;
11431;SDS011;5772;50.940;6.782;2023-07-13T03:29:31;23.70;;;22.50;;
11431;SDS011;5772;50.940;6.782;2023-07-13T03:31:57;23.27;;;22.27;;
11431;SDS011;5772;50.940;6.782;2023-07-13T03:34:22;23.83;;;22.67;;
11431;SDS011;5772;50.940;6.782;2023-07-13T03:36:49;23.73;;;22.63;;
11431;SDS011;5772;50.940;6.782;2023-07-13T03:39:14;23.90;;;22.97;;
11431;SDS011;5772;50.940;6.782;2023-07-13T03:41:39;22.40;;;21.50;;
11431;SDS011;5772;50.940;6.782;2023-07-13T03:44:05;22.73;;;21.73;;
11431;SDS011;5772;50.940;6.782;2023-07-13T03:46:31;22.80;;;21.63;;
11431;SDS011;5772;50.940;6.782;2023-07-13T03:48:56;23.00;;;22.07;;
11431;SDS011;5772;50.940;6.782;2023-07-13T03:51:22;22.13;;;21.13;;
11431;SDS011;5772;50.940;6.782;2023-07-13T03:53:49;22.50;;;21.30;;
11431;SDS011;5772;50.940;6.782;2023-07-13T03:56:15;22.27;;;21.40;;
11431;SDS011;5772;50.940;6.782;2023-07-13T03:58:41;23.33;;;22.33;;
11431;SDS011;5772;50.940;6.782;2023-07-13T04:01:09;24.90;;;23.70;;
11431;SDS011;5772;50.940;6.782;2023-07-13T04:03:35;23.37;;;22.17;;
11431;SDS011;5772;50.940;6.782;2023-07-13T04:06:01;23.13;;;22.13;;
11431;SDS011;5772;50.940;6.782;2023-07-13T04:08:27;23.40;;;22.50;;
11431;SDS011;5772;50.940;6.782;2023-07-13T04:10:55;25.43;;;24.23;;
11431;SDS011;5772;50.940;6.782;2023-07-13T04:13:20;24.23;;;23.13;;
11431;SDS011;5772;50.940;6.782;2023-07-13T04:15:46;24.40;;;23.40;;
11431;SDS011;5772;50.940;6.782;2023-07-13T04:18:11;25.33;;;23.90;;
11431;SDS011;5772;50.940;6.782;2023-07-13T04:20:36;23.73;;;22.63;;
11431;SDS011;5772;50.940;6.782;2023-07-13T04:23:02;24.80;;;23.70;;
11431;SDS011;5772;50.940;6.782;2023-07-13T04:25:27;24.63;;;23.53;;
11431;SDS011;5772;50.940;6.782;2023-07-13T04:27:54;27.23;;;25.73;;
11431;SDS011;5772;50.940;6.782;2023-07-13T04:30:19;24.63;;;23.53;;
11431;SDS011;5772;50.940;6.782;2023-07-13T04:32:45;25.30;;;24.17;;
11431;SDS011;5772;50.940;6.782;2023-07-13T04:35:10;25.57;;;24.37;;
11431;SDS011;5772;50.940;6.782;2023-07-13T04:37:36;24.23;;;23.03;;
11431;SDS011;5772;50.940;6.782;2023-07-13T04:40:01;25.80;;;24.70;;
11431;SDS011;5772;50.940;6.782;2023-07-13T04:42:27;25.57;;;24.57;;
11431;SDS011;5772;50.940;6.782;2023-07-13T04:44:53;23.90;;;22.83;;
11431;SDS011;5772;50.940;6.782;2023-07-13T04:47:19;24.30;;;23.30;;
11431;SDS011;5772;50.940;6.782;2023-07-13T04:49:44;23.80;;;22.70;;
11431;SDS011;5772;50.940;6.782;2023-07-13T04:52:10;25.33;;;24.03;;
11431;SDS011;5772;50.940;6.782;2023-07-13T04:54:35;24.70;;;23.67;;
11431;SDS011;5772;50.940;6.782;2023-07-13T04:57:01;26.13;;;24.73;;
11431;SDS011;5772;50.940;6.782;2023-07-13T04:59:26;26.13;;;25.03;;
11431;SDS011;5772;50.940;6.782;2023-07-13T05:01:53;27.07;;;25.53;;
11431;SDS011;5772;50.940;6.782;2023-07-13T05:04:18;25.73;;;23.83;;
11431;SDS011;5772;50.940;6.782;2023-07-13T05:06:44;24.63;;;23.63;;
11431;SDS011;5772;50.940;6.782;2023-07-13T05:09:09;25.53;;;24.43;;
11431;SDS011;5772;50.940;6.782;2023-07-13T05:11:34;27.30;;;26.00;;
11431;SDS011;5772;50.940;6.782;2023-07-13T05:14:00;27.83;;;26.47;;
11431;SDS011;5772;50.940;6.782;2023-07-13T05:16:25;27.23;;;26.13;;
11431;SDS011;5772;50.940;6.782;2023-07-13T05:18:52;26.40;;;25.20;;
11431;SDS011;5772;50.940;6.782;2023-07-13T05:21:17;26.70;;;25.50;;
11431;SDS011;5772;50.940;6.782;2023-07-13T05:23:43;25.67;;;24.47;;
11431;SDS011;5772;50.940;6.782;2023-07-13T05:26:08;27.57;;;26.27;;
11431;SDS011;5772;50.940;6.782;2023-07-13T05:28:33;24.67;;;23.43;;
11431;SDS011;5772;50.940;6.782;2023-07-13T05:30:59;25.07;;;23.97;;
11431;SDS011;5772;50.940;6.782;2023-07-13T05:33:24;24.83;;;23.50;;
11431;SDS011;5772;50.940;6.782;2023-07-13T05:35:51;26.60;;;25.40;;
11431;SDS011;5772;50.940;6.782;2023-07-13T05:38:17;23.17;;;22.10;;
11431;SDS011;5772;50.940;6.782;2023-07-13T05:40:42;23.40;;;22.40;;
11431;SDS011;5772;50.940;6.782;2023-07-13T05:43:08;21.57;;;20.47;;
11431;SDS011;5772;50.940;6.782;2023-07-13T05:45:33;21.80;;;20.70;;
11431;SDS011;5772;50.940;6.782;2023-07-13T05:47:59;21.70;;;20.80;;
11431;SDS011;5772;50.940;6.782;2023-07-13T05:50:25;22.13;;;21.13;;
11431;SDS011;5772;50.940;6.782;2023-07-13T05:52:52;21.10;;;20.10;;
11431;SDS011;5772;50.940;6.782;2023-07-13T05:55:17;21.40;;;20.47;;
11431;SDS011;5772;50.940;6.782;2023-07-13T05:57:43;19.30;;;18.50;;
11431;SDS011;5772;50.940;6.782;2023-07-13T06:00:10;17.87;;;17.00;;
11431;SDS011;5772;50.940;6.782;2023-07-13T06:02:36;19.57;;;18.47;;
11431;SDS011;5772;50.940;6.782;2023-07-13T06:05:01;19.57;;;18.53;;
11431;SDS011;5772;50.940;6.782;2023-07-13T06:07:26;19.73;;;18.43;;
11431;SDS011;5772;50.940;6.782;2023-07-13T06:09:53;17.70;;;17.00;;
11431;SDS011;5772;50.940;6.782;2023-07-13T06:12:19;18.17;;;17.27;;
11431;SDS011;5772;50.940;6.782;2023-07-13T06:14:44;16.70;;;15.90;;
11431;SDS011;5772;50.940;6.782;2023-07-13T06:17:09;17.70;;;16.80;;
11431;SDS011;5772;50.940;6.782;2023-07-13T06:19:35;18.37;;;17.43;;
11431;SDS011;5772;50.940;6.782;2023-07-13T06:22:00;17.63;;;16.70;;
11431;SDS011;5772;50.940;6.782;2023-07-13T06:24:25;18.83;;;17.67;;
11431;SDS011;5772;50.940;6.782;2023-07-13T06:26:52;16.93;;;15.87;;
11431;SDS011;5772;50.940;6.782;2023-07-13T06:29:17;18.33;;;17.43;;
11431;SDS011;5772;50.940;6.782;2023-07-13T06:31:43;16.93;;;16.20;;
11431;SDS011;5772;50.940;6.782;2023-07-13T06:34:08;17.70;;;16.70;;
11431;SDS011;5772;50.940;6.782;2023-07-13T06:36:34;17.43;;;16.50;;
11431;SDS011;5772;50.940;6.782;2023-07-13T06:38:59;17.13;;;16.30;;
11431;SDS011;5772;50.940;6.782;2023-07-13T06:41:24;18.57;;;16.77;;
11431;SDS011;5772;50.940;6.782;2023-07-13T06:43:51;16.50;;;15.70;;
11431;SDS011;5772;50.940;6.782;2023-07-13T06:46:17;17.17;;;16.43;;
11431;SDS011;5772;50.940;6.782;2023-07-13T06:48:42;19.43;;;18.63;;
11431;SDS011;5772;50.940;6.782;2023-07-13T06:51:07;18.33;;;17.60;;
11431;SDS011;5772;50.940;6.782;2023-07-13T06:53:33;20.03;;;19.03;;
11431;SDS011;5772;50.940;6.782;2023-07-13T06:55:58;19.60;;;18.63;;
11431;SDS011;5772;50.940;6.782;2023-07-13T06:58:24;19.20;;;17.93;;
11431;SDS011;5772;50.940;6.782;2023-07-13T07:00:51;18.27;;;17.17;;
11431;SDS011;5772;50.940;6.782;2023-07-13T07:03:17;17.93;;;17.03;;
11431;SDS011;5772;50.940;6.782;2023-07-13T07:05:42;17.83;;;17.03;;
11431;SDS011;5772;50.940;6.782;2023-07-13T07:08:08;17.23;;;16.33;;
11431;SDS011;5772;50.940;6.782;2023-07-13T07:10:33;16.90;;;16.20;;
11431;SDS011;5772;50.940;6.782;2023-07-13T07:12:59;17.27;;;16.30;;
11431;SDS011;5772;50.940;6.782;2023-07-13T07:15:25;16.97;;;15.87;;
11431;SDS011;5772;50.940;6.782;2023-07-13T07:17:52;16.33;;;15.53;;
11431;SDS011;5772;50.940;6.782;2023-07-13T07:20:17;16.40;;;15.70;;
11431;SDS011;5772;50.940;6.782;2023-07-13T07:22:42;16.67;;;15.67;;
11431;SDS011;5772;50.940;6.782;2023-07-13T07:25:08;17.60;;;16.90;;
11431;SDS011;5772;50.940;6.782;2023-07-13T07:27:33;19.43;;;18.43;;
11431;SDS011;5772;50.940;6.782;2023-07-13T07:29:59;18.87;;;17.83;;
11431;SDS011;5772;50.940;6.782;2023-07-13T07:32:24;18.00;;;17.20;;
11431;SDS011;5772;50.940;6.782;2023-07-13T07:34:51;17.83;;;16.83;;
11431;SDS011;5772;50.940;6.782;2023-07-13T07:37:16;17.07;;;16.37;;
11431;SDS011;5772;50.940;6.782;2023-07-13T07:39:42;16.73;;;16.03;;
11431;SDS011;5772;50.940;6.782;2023-07-13T07:42:07;18.77;;;17.70;;
11431;SDS011;5772;50.940;6.782;2023-07-13T07:44:33;17.83;;;16.73;;
11431;SDS011;5772;50.940;6.782;2023-07-13T07:46:58;17.43;;;16.43;;
11431;SDS011;5772;50.940;6.782;2023-07-13T07:49:24;17.10;;;16.27;;
11431;SDS011;5772;50.940;6.782;2023-07-13T07:51:51;18.17;;;16.87;;
11431;SDS011;5772;50.940;6.782;2023-07-13T07:54:16;16.83;;;16.03;;
11431;SDS011;5772;50.940;6.782;2023-07-13T07:56:42;15.83;;;14.80;;
11431;SDS011;5772;50.940;6.782;2023-07-13T07:59:07;16.37;;;15.37;;
11431;SDS011;5772;50.940;6.782;2023-07-13T08:01:33;16.75;;;15.75;;
11431;SDS011;5772;50.940;6.782;2023-07-13T08:03:58;16.25;;;15.55;;
11431;SDS011;5772;50.940;6.782;2023-07-13T08:06:23;17.35;;;16.55;;
11431;SDS011;5772;50.940;6.782;2023-07-13T08:08:50;17.75;;;16.95;;
11431;SDS011;5772;50.940;6.782;2023-07-13T08:11:16;16.83;;;15.75;;
11431;SDS011;5772;50.940;6.782;2023-07-13T08:13:42;18.60;;;17.35;;
11431;SDS011;5772;50.940;6.782;2023-07-13T08:16:07;17.98;;;16.48;;
11431;SDS011;5772;50.940;6.782;2023-07-13T08:18:33;17.88;;;16.13;;
11431;SDS011;5772;50.940;6.782;2023-07-13T08:20:58;18.20;;;17.10;;
11431;SDS011;5772;50.940;6.782;2023-07-13T08:23:28;16.88;;;16.05;;
11431;SDS011;5772;50.940;6.782;2023-07-13T08:25:55;17.27;;;16.35;;
11431;SDS011;5772;50.940;6.782;2023-07-13T08:28:20;16.38;;;15.68;;
11431;SDS011;5772;50.940;6.782;2023-07-13T08:30:46;16.33;;;15.63;;
11431;SDS011;5772;50.940;6.782;2023-07-13T08:33:11;16.05;;;14.95;;
11431;SDS011;5772;50.940;6.782;2023-07-13T08:35:39;15.70;;;15.00;;
11431;SDS011;5772;50.940;6.782;2023-07-13T08:38:05;16.15;;;15.45;;
11431;SDS011;5772;50.940;6.782;2023-07-13T08:40:30;17.55;;;16.23;;
11431;SDS011;5772;50.940;6.782;2023-07-13T08:42:57;16.10;;;15.40;;
11431;SDS011;5772;50.940;6.782;2023-07-13T08:45:24;16.00;;;15.25;;
11431;SDS011;5772;50.940;6.782;2023-07-13T08:47:55;15.55;;;14.95;;
11431;SDS011;5772;50.940;6.782;2023-07-13T08:50:24;17.25;;;16.15;;
11431;SDS011;5772;50.940;6.782;2023-07-13T08:52:52;15.98;;;15.30;;
11431;SDS011;5772;50.940;6.782;2023-07-13T08:55:18;15.20;;;14.60;;
11431;SDS011;5772;50.940;6.782;2023-07-13T08:57:46;16.13;;;15.13;;
11431;SDS011;5772;50.940;6.782;2023-07-13T09:00:17;17.10;;;16.25;;
11431;SDS011;5772;50.940;6.782;2023-07-13T09:02:45;16.58;;;15.88;;
11431;SDS011;5772;50.940;6.782;2023-07-13T09:05:13;16.88;;;16.20;;
11431;SDS011;5772;50.940;6.782;2023-07-13T09:07:42;16.10;;;15.10;;
11431;SDS011;5772;50.940;6.782;2023-07-13T09:10:14;16.58;;;15.77;;
11431;SDS011;5772;50.940;6.782;2023-07-13T09:12:43;15.90;;;15.20;;
11431;SDS011;5772;50.940;6.782;2023-07-13T09:15:17;18.85;;;17.95;;
11431;SDS011;5772;50.940;6.782;2023-07-13T09:17:49;17.23;;;16.42;;
11431;SDS011;5772;50.940;6.782;2023-07-13T09:20:18;17.40;;;16.33;;
11431;SDS011;5772;50.940;6.782;2023-07-13T09:22:47;16.58;;;15.80;;
11431;SDS011;5772;50.940;6.782;2023-07-13T09:25:18;17.35;;;16.45;;
11431;SDS011;5772;50.940;6.782;2023-07-13T09:27:49;17.58;;;16.77;;
11431;SDS011;5772;50.940;6.782;2023-07-13T09:30:22;17.38;;;16.38;;
11431;SDS011;5772;50.940;6.782;2023-07-13T09:32:52;16.08;;;15.30;;
11431;SDS011;5772;50.940;6.782;2023-07-13T09:35:19;17.08;;;16.25;;
11431;SDS011;5772;50.940;6.782;2023-07-13T09:37:46;16.30;;;15.52;;
11431;SDS011;5772;50.940;6.782;2023-07-13T09:40:13;16.05;;;15.35;;
11431;SDS011;5772;50.940;6.782;2023-07-13T09:42:45;16.15;;;15.30;;
11431;SDS011;5772;50.940;6.782;2023-07-13T09:45:11;16.50;;;15.68;;
11431;SDS011;5772;50.940;6.782;2023-07-13T09:47:43;16.52;;;15.38;;
11431;SDS011;5772;50.940;6.782;2023-07-13T09:50:12;15.85;;;14.93;;
11431;SDS011;5772;50.940;6.782;2023-07-13T09:52:40;16.60;;;15.77;;
11431;SDS011;5772;50.940;6.782;2023-07-13T09:55:11;16.63;;;15.63;;
11431;SDS011;5772;50.940;6.782;2023-07-13T09:57:49;17.02;;;16.30;;
11431;SDS011;5772;50.940;6.782;2023-07-13T10:00:18;16.70;;;16.00;;
11431;SDS011;5772;50.940;6.782;2023-07-13T10:02:49;17.05;;;16.25;;
11431;SDS011;5772;50.940;6.782;2023-07-13T10:05:23;17.77;;;16.98;;
11431;SDS011;5772;50.940;6.782;2023-07-13T10:07:48;15.82;;;15.20;;
11431;SDS011;5772;50.940;6.782;2023-07-13T10:10:14;17.83;;;17.02;;
11431;SDS011;5772;50.940;6.782;2023-07-13T10:12:41;15.20;;;14.23;;
11431;SDS011;5772;50.940;6.782;2023-07-13T10:15:07;14.15;;;13.55;;
11431;SDS011;5772;50.940;6.782;2023-07-13T10:17:40;18.08;;;17.20;;
11431;SDS011;5772;50.940;6.782;2023-07-13T10:20:07;17.50;;;16.70;;
11431;SDS011;5772;50.940;6.782;2023-07-13T10:22:36;18.67;;;17.33;;
11431;SDS011;5772;50.940;6.782;2023-07-13T10:25:02;16.92;;;16.13;;
11431;SDS011;5772;50.940;6.782;2023-07-13T10:27:34;18.45;;;17.48;;
11431;SDS011;5772;50.940;6.782;2023-07-13T10:30:01;16.55;;;15.88;;
11431;SDS011;5772;50.940;6.782;2023-07-13T10:32:29;16.38;;;15.57;;
11431;SDS011;5772;50.940;6.782;2023-07-13T10:34:55;15.00;;;14.30;;
11431;SDS011;5772;50.940;6.782;2023-07-13T10:37:22;15.68;;;14.98;;
11431;SDS011;5772;50.940;6.782;2023-07-13T10:39:49;15.48;;;14.48;;
11431;SDS011;5772;50.940;6.782;2023-07-13T10:42:18;15.65;;;14.95;;
11431;SDS011;5772;50.940;6.782;2023-07-13T10:44:49;13.57;;;12.77;;
11431;SDS011;5772;50.940;6.782;2023-07-13T10:47:15;15.27;;;14.48;;
11431;SDS011;5772;50.940;6.782;2023-07-13T10:49:41;14.23;;;13.18;;
11431;SDS011;5772;50.940;6.782;2023-07-13T10:52:20;14.65;;;14.05;;
11431;SDS011;5772;50.940;6.782;2023-07-13T10:55:09;18.20;;;17.40;;
11431;SDS011;5772;50.940;6.782;2023-07-13T10:57:55;18.95;;;17.85;;
11431;SDS011;5772;50.940;6.782;2023-07-13T11:00:25;15.85;;;14.93;;
11431;SDS011;5772;50.940;6.782;2023-07-13T11:02:56;17.83;;;16.98;;
11431;SDS011;5772;50.940;6.782;2023-07-13T11:05:25;16.77;;;15.88;;
11431;SDS011;5772;50.940;6.782;2023-07-13T11:07:54;16.73;;;15.98;;
11431;SDS011;5772;50.940;6.782;2023-07-13T11:16:01;16.75;;;15.98;;
11431;SDS011;5772;50.940;6.782;2023-07-13T11:18:37;16.50;;;15.80;;
11431;SDS011;5772;50.940;6.782;2023-07-13T11:21:12;17.40;;;16.60;;
11431;SDS011;5772;50.940;6.782;2023-07-13T11:23:42;17.63;;;16.80;;
11431;SDS011;5772;50.940;6.782;2023-07-13T11:29:07;16.30;;;15.60;;
11431;SDS011;5772;50.940;6.782;2023-07-13T11:31:33;17.45;;;16.58;;
11431;SDS011;5772;50.940;6.782;2023-07-13T11:33:59;18.02;;;16.98;;
11431;SDS011;5772;50.940;6.782;2023-07-13T11:36:27;18.38;;;17.45;;
11431;SDS011;5772;50.940;6.782;2023-07-13T11:38:59;17.88;;;16.42;;
11431;SDS011;5772;50.940;6.782;2023-07-13T11:41:27;17.83;;;16.92;;
11431;SDS011;5772;50.940;6.782;2023-07-13T11:43:55;17.40;;;16.60;;
11431;SDS011;5772;50.940;6.782;2023-07-13T11:46:27;16.50;;;15.70;;
11431;SDS011;5772;50.940;6.782;2023-07-13T11:48:53;16.13;;;15.43;;
11431;SDS011;5772;50.940;6.782;2023-07-13T11:51:21;17.95;;;17.15;;
11431;SDS011;5772;50.940;6.782;2023-07-13T11:53:48;17.98;;;16.83;;
11431;SDS011;5772;50.940;6.782;2023-07-13T11:56:16;17.90;;;17.00;;
11431;SDS011;5772;50.940;6.782;2023-07-13T11:58:42;16.67;;;15.77;;
11431;SDS011;5772;50.940;6.782;2023-07-13T12:01:10;19.73;;;18.55;;
11431;SDS011;5772;50.940;6.782;2023-07-13T12:03:42;20.38;;;19.30;;
11431;SDS011;5772;50.940;6.782;2023-07-13T12:06:19;19.52;;;18.52;;
11431;SDS011;5772;50.940;6.782;2023-07-13T12:08:48;17.20;;;16.35;;
11431;SDS011;5772;50.940;6.782;2023-07-13T12:11:14;16.35;;;15.55;;
11431;SDS011;5772;50.940;6.782;2023-07-13T12:13:43;15.98;;;15.00;;
11431;SDS011;5772;50.940;6.782;2023-07-13T12:16:15;16.60;;;15.90;;
11431;SDS011;5772;50.940;6.782;2023-07-13T12:18:41;15.70;;;15.10;;
11431;SDS011;5772;50.940;6.782;2023-07-13T12:21:09;15.88;;;15.23;;
11431;SDS011;5772;50.940;6.782;2023-07-13T12:23:37;15.50;;;14.88;;
11431;SDS011;5772;50.940;6.782;2023-07-13T12:26:03;17.92;;;17.23;;
11431;SDS011;5772;50.940;6.782;2023-07-13T12:28:32;19.05;;;18.35;;
11431;SDS011;5772;50.940;6.782;2023-07-13T12:30:59;20.25;;;19.45;;
11431;SDS011;5772;50.940;6.782;2023-07-13T12:33:27;21.45;;;20.45;;
11431;SDS011;5772;50.940;6.782;2023-07-13T12:35:53;20.67;;;19.52;;
11431;SDS011;5772;50.940;6.782;2023-07-13T12:38:18;19.23;;;18.42;;
11431;SDS011;5772;50.940;6.782;2023-07-13T12:40:44;17.55;;;16.85;;
11431;SDS011;5772;50.940;6.782;2023-07-13T12:43:11;15.02;;;14.15;;
11431;SDS011;5772;50.940;6.782;2023-07-13T12:45:38;15.65;;;14.73;;
11431;SDS011;5772;50.940;6.782;2023-07-13T12:48:04;16.55;;;15.82;;
11431;SDS011;5772;50.940;6.782;2023-07-13T12:50:33;15.73;;;14.80;;
11431;SDS011;5772;50.940;6.782;2023-07-13T12:53:02;16.92;;;15.85;;
11431;SDS011;5772;50.940;6.782;2023-07-13T12:55:30;14.77;;;14.18;;
11431;SDS011;5772;50.940;6.782;2023-07-13T12:57:56;16.00;;;15.30;;
11431;SDS011;5772;50.940;6.782;2023-07-13T13:00:23;15.93;;;15.23;;
11431;SDS011;5772;50.940;6.782;2023-07-13T13:02:51;16.25;;;15.43;;
11431;SDS011;5772;50.940;6.782;2023-07-13T13:05:18;16.30;;;15.13;;
11431;SDS011;5772;50.940;6.782;2023-07-13T13:07:43;15.05;;;14.35;;
11431;SDS011;5772;50.940;6.782;2023-07-13T13:10:11;15.50;;;14.80;;
11431;SDS011;5772;50.940;6.782;2023-07-13T13:12:36;15.23;;;14.57;;
11431;SDS011;5772;50.940;6.782;2023-07-13T13:15:02;16.60;;;15.90;;
11431;SDS011;5772;50.940;6.782;2023-07-13T13:17:29;16.50;;;15.80;;
11431;SDS011;5772;50.940;6.782;2023-07-13T13:19:56;15.98;;;14.68;;
11431;SDS011;5772;50.940;6.782;2023-07-13T13:22:22;16.95;;;16.00;;
11431;SDS011;5772;50.940;6.782;2023-07-13T13:24:48;15.38;;;14.38;;
11431;SDS011;5772;50.940;6.782;2023-07-13T13:27:14;15.57;;;14.88;;
11431;SDS011;5772;50.940;6.782;2023-07-13T13:29:40;17.23;;;16.08;;
11431;SDS011;5772;50.940;6.782;2023-07-13T13:32:09;16.25;;;15.55;;
11431;SDS011;5772;50.940;6.782;2023-07-13T13:34:34;14.95;;;14.35;;
11431;SDS011;5772;50.940;6.782;2023-07-13T13:37:01;16.63;;;15.63;;
11431;SDS011;5772;50.940;6.782;2023-07-13T13:39:28;16.58;;;15.98;;
11431;SDS011;5772;50.940;6.782;2023-07-13T13:41:58;18.60;;;17.70;;
11431;SDS011;5772;50.940;6.782;2023-07-13T13:44:24;18.55;;;17.75;;
11431;SDS011;5772;50.940;6.782;2023-07-13T13:46:50;18.10;;;17.27;;
11431;SDS011;5772;50.940;6.782;2023-07-13T13:49:17;17.40;;;16.70;;
11431;SDS011;5772;50.940;6.782;2023-07-13T13:51:44;18.20;;;17.35;;
11431;SDS011;5772;50.940;6.782;2023-07-13T13:54:12;18.60;;;17.90;;
11431;SDS011;5772;50.940;6.782;2023-07-13T13:56:37;18.27;;;17.50;;
11431;SDS011;5772;50.940;6.782;2023-07-13T13:59:03;18.77;;;17.95;;
11431;SDS011;5772;50.940;6.782;2023-07-13T14:01:28;17.83;;;17.02;;
11431;SDS011;5772;50.940;6.782;2023-07-13T14:03:54;17.25;;;16.55;;
11431;SDS011;5772;50.940;6.782;2023-07-13T14:06:19;18.40;;;17.50;;
11431;SDS011;5772;50.940;6.782;2023-07-13T14:08:45;17.20;;;16.30;;
11431;SDS011;5772;50.940;6.782;2023-07-13T14:11:12;18.60;;;17.88;;
11431;SDS011;5772;50.940;6.782;2023-07-13T14:13:40;17.98;;;17.27;;
11431;SDS011;5772;50.940;6.782;2023-07-13T14:16:09;18.45;;;17.65;;
11431;SDS011;5772;50.940;6.782;2023-07-13T14:18:36;19.67;;;18.77;;
11431;SDS011;5772;50.940;6.782;2023-07-13T14:21:01;19.52;;;18.45;;
11431;SDS011;5772;50.940;6.782;2023-07-13T14:23:27;19.23;;;18.33;;
11431;SDS011;5772;50.940;6.782;2023-07-13T14:25:52;18.23;;;17.42;;
11431;SDS011;5772;50.940;6.782;2023-07-13T14:28:21;19.98;;;19.17;;
11431;SDS011;5772;50.940;6.782;2023-07-13T14:30:49;19.58;;;18.77;;
11431;SDS011;5772;50.940;6.782;2023-07-13T14:33:15;20.10;;;19.20;;
11431;SDS011;5772;50.940;6.782;2023-07-13T14:35:41;17.92;;;17.23;;
11431;SDS011;5772;50.940;6.782;2023-07-13T14:38:07;19.08;;;18.20;;
11431;SDS011;5772;50.940;6.782;2023-07-13T14:40:34;18.50;;;17.75;;